This is the latest recevied weather packets stored in our database for station/object IN3MWE-10. If no packets are shown the sender has not sent any weather packets the latest 10 day(s).
| Time | Temp. | Humidity | Pressure | Rain* | Wind** | Luminosity | Snow |
|---|---|---|---|---|---|---|---|
| 1788384023 | 22.78° C | 44% | 983.4 hPa | - | - | - | - |
| 1788383123 | 23.33° C | 44% | 983.3 hPa | - | - | - | - |
| 1788382223 | 23.33° C | 44% | 983.1 hPa | - | - | - | - |
| 1788381323 | 23.89° C | 46% | 982.9 hPa | - | - | - | - |
| 1788380423 | 23.89° C | 46% | 982.8 hPa | - | - | - | - |
| 1788379523 | 24.44° C | 46% | 982.7 hPa | - | - | - | - |
| 1788378623 | 24.44° C | 47% | 982.5 hPa | - | - | - | - |
| 1788377722 | 25° C | 49% | 982.4 hPa | - | - | - | - |
| 1788376822 | 25° C | 50% | 982.1 hPa | - | - | - | - |
| 1788375922 | 25° C | 51% | 981.9 hPa | - | - | - | - |
| 1788375022 | 25° C | 52% | 981.6 hPa | - | - | - | - |
| 1788374122 | 25.56° C | 52% | 981.3 hPa | - | - | - | - |
| 1788373222 | 25.56° C | 52% | 981.1 hPa | - | - | - | - |
| 1788372322 | 25.56° C | 52% | 980.9 hPa | - | - | - | - |
| 1788371421 | 25.56° C | 56% | 980.6 hPa | - | - | - | - |
| 1788370521 | 25.56° C | 57% | 980.4 hPa | - | - | - | - |
| 1788369621 | 26.11° C | 57% | 980.2 hPa | - | - | - | - |
| 1788368721 | 26.67° C | 54% | 980 hPa | - | - | - | - |
| 1788367821 | 27.78° C | 52% | 980 hPa | - | - | - | - |
| 1788366921 | 28.33° C | 45% | 980 hPa | - | - | - | - |
| 1788366021 | 29.44° C | 43% | 979.8 hPa | - | - | - | - |
| 1788365120 | 30.56° C | 41% | 979.8 hPa | - | - | - | - |
| 1788364220 | 36.67° C | 28% | 979.5 hPa | - | - | - | - |
| 1788363320 | 37.78° C | 29% | 979.6 hPa | - | - | - | - |
| 1788362420 | 35° C | 29% | 979.7 hPa | - | - | - | - |
* Rain since midnight (hover to see other rain measurements)
** Current wind speed in m/s (hover to see current wind gust speed)